LIML

Linate Airport

Milan, Italy
TAF LIML 162300Z 1700/1724 VRB05KT 9999 SCT025 SCT060
Issued Valid From Valid To
Jul-16 @ 23:00 UTC
(an hour ago)
Jul-17 @ 00:00 UTC
(26 minutes ago)
Jul-18 @ 00:00 UTC
(in 24 hours)
Jul-17 @ 00:00 to Jul-18 @ 00:00
TAF LIML 162300Z 1700/1724 VRB05KT 9999 SCT025 SCT060
Wind Visibility Clouds
Variable at 5 knots 10,000+ meters
  • Scattered at 2,500' AGL
  • Scattered at 6,000' AGL
TAF LIML 162300Z 1700/1724 VRB05KT 9999 SCT025 SCT060
Issued Jul-16 @ 23:00 UTC
(an hour ago)
Valid From Jul-17 @ 00:00 UTC
(26 minutes ago)
Valid To Jul-18 @ 00:00 UTC
(in 24 hours)
Jul-17 @ 00:00 - Jul-18 @ 00:00
Wind Visibility
Variable at 5 knots 10,000+ meters
Clouds
  • Scattered at 2,500' AGL
  • Scattered at 6,000' AGL